createdAt,value
2023-09-10T00:01:56.451Z,56.51
2023-09-10T00:04:22.657Z,56.43
2023-09-10T00:06:48.835Z,56.70
2023-09-10T00:09:14.990Z,56.85
2023-09-10T00:11:41.177Z,56.80
2023-09-10T00:14:07.358Z,56.73
2023-09-10T00:16:33.780Z,56.17
2023-09-10T00:19:00.105Z,56.54
2023-09-10T00:21:26.248Z,55.71
2023-09-10T00:23:52.427Z,56.29
2023-09-10T00:26:18.609Z,56.58
2023-09-10T00:28:44.814Z,56.76
2023-09-10T00:31:11.057Z,57.33
2023-09-10T00:33:37.317Z,57.23
2023-09-10T00:36:03.486Z,57.20
2023-09-10T00:38:29.670Z,57.15
2023-09-10T00:40:55.907Z,57.05
2023-09-10T00:43:22.109Z,57.40
2023-09-10T00:45:48.294Z,57.29
2023-09-10T00:48:14.467Z,56.74
2023-09-10T00:50:40.659Z,57.14
2023-09-10T00:53:06.906Z,57.62
2023-09-10T00:55:33.115Z,57.33
2023-09-10T00:57:59.302Z,56.68
2023-09-10T01:00:25.489Z,56.73
2023-09-10T01:02:51.810Z,56.50
2023-09-10T01:05:18.065Z,56.98
2023-09-10T01:07:44.256Z,56.52
2023-09-10T01:10:10.449Z,55.64
2023-09-10T01:12:36.623Z,55.58
2023-09-10T01:15:02.820Z,55.75
2023-09-10T01:17:29.255Z,56.80
2023-09-10T01:19:55.579Z,57.49
2023-09-10T01:22:21.776Z,57.73
2023-09-10T01:24:47.936Z,57.75
2023-09-10T01:27:14.097Z,58.52
2023-09-10T01:29:40.271Z,58.32
2023-09-10T01:32:06.479Z,58.22
2023-09-10T01:34:32.654Z,57.75
2023-09-10T01:36:58.855Z,57.32
2023-09-10T01:39:25.037Z,57.17
2023-09-10T01:41:51.203Z,57.50
2023-09-10T01:44:17.338Z,57.93
2023-09-10T01:46:43.574Z,57.86
2023-09-10T01:49:09.734Z,57.04
2023-09-10T01:51:35.924Z,56.35
2023-09-10T01:54:02.076Z,57.47
2023-09-10T01:56:28.239Z,57.19
2023-09-10T01:58:54.434Z,56.99
2023-09-10T02:01:20.754Z,57.35
2023-09-10T02:03:47.028Z,57.42
2023-09-10T02:06:13.383Z,57.70
2023-09-10T02:08:39.792Z,57.97
2023-09-10T02:11:06.291Z,57.70
2023-09-10T02:13:32.505Z,57.12
2023-09-10T02:15:58.714Z,57.39
2023-09-10T02:18:24.975Z,56.83
2023-09-10T02:20:51.147Z,56.33
2023-09-10T02:23:17.434Z,56.83
2023-09-10T02:25:43.708Z,56.94
2023-09-10T02:28:09.887Z,56.28
2023-09-10T02:30:36.047Z,55.66
2023-09-10T02:33:02.243Z,56.51
2023-09-10T02:35:28.469Z,57.08
2023-09-10T02:37:54.658Z,56.79
2023-09-10T02:40:20.857Z,57.52
2023-09-10T02:42:47.046Z,57.45
2023-09-10T02:45:13.274Z,57.11
2023-09-10T02:47:39.507Z,57.05
2023-09-10T02:50:05.741Z,57.27
2023-09-10T02:52:31.918Z,56.57
2023-09-10T02:54:58.082Z,57.26
2023-09-10T02:57:24.241Z,57.28
2023-09-10T02:59:50.383Z,57.19
2023-09-10T03:02:16.639Z,57.32
2023-09-10T03:04:42.871Z,57.13
2023-09-10T03:07:09.092Z,56.18
2023-09-10T03:09:35.287Z,56.25
2023-09-10T03:12:01.433Z,56.54
2023-09-10T03:14:27.597Z,57.09
2023-09-10T03:16:53.766Z,56.71
2023-09-10T03:19:19.945Z,57.18
2023-09-10T03:21:46.182Z,57.49
2023-09-10T03:24:12.338Z,57.48
2023-09-10T03:26:38.599Z,57.47
2023-09-10T03:29:04.830Z,57.09
2023-09-10T03:31:31.029Z,57.64
2023-09-10T03:33:57.198Z,57.34
2023-09-10T03:36:23.364Z,57.29
2023-09-10T03:38:49.576Z,56.88
2023-09-10T03:41:15.802Z,56.29
2023-09-10T03:43:42.049Z,55.72
2023-09-10T03:46:08.236Z,56.65
2023-09-10T03:48:34.394Z,56.75
2023-09-10T03:51:00.559Z,56.91
2023-09-10T03:53:26.745Z,57.17
2023-09-10T03:55:52.978Z,57.20
2023-09-10T03:58:19.180Z,56.17
2023-09-10T04:00:45.456Z,55.23
2023-09-10T04:03:11.764Z,57.28
2023-09-10T04:05:37.993Z,57.90
2023-09-10T04:08:04.200Z,57.49
2023-09-10T04:10:30.394Z,56.90
2023-09-10T04:12:56.554Z,57.84
2023-09-10T04:15:22.817Z,57.23
2023-09-10T04:17:48.992Z,58.37
2023-09-10T04:20:15.265Z,58.72
2023-09-10T04:22:41.489Z,58.52
2023-09-10T04:25:07.665Z,59.26
2023-09-10T04:27:33.842Z,59.54
2023-09-10T04:30:00.400Z,59.70
2023-09-10T04:32:26.588Z,59.33
2023-09-10T04:34:52.805Z,59.95
2023-09-10T04:37:19.007Z,60.14
2023-09-10T04:39:45.190Z,59.48
2023-09-10T04:42:11.377Z,59.70
2023-09-10T04:44:37.526Z,59.67
2023-09-10T04:47:03.752Z,59.23
2023-09-10T04:49:29.930Z,59.36
2023-09-10T04:51:56.087Z,59.13
2023-09-10T04:54:22.245Z,59.02
2023-09-10T04:56:48.393Z,59.01
2023-09-10T04:59:14.616Z,58.87
2023-09-10T05:01:40.868Z,57.85
2023-09-10T05:04:07.232Z,57.83
2023-09-10T05:06:33.475Z,58.29
2023-09-10T05:08:59.645Z,58.18
2023-09-10T05:11:25.837Z,58.57
2023-09-10T05:13:52.042Z,58.01
2023-09-10T05:16:18.353Z,57.55
2023-09-10T05:18:44.510Z,57.67
2023-09-10T05:21:10.759Z,56.98
2023-09-10T05:23:36.936Z,57.60
2023-09-10T05:26:03.144Z,57.74
2023-09-10T05:28:29.333Z,57.58
2023-09-10T05:30:55.584Z,57.65
2023-09-10T05:33:21.790Z,57.74
2023-09-10T05:35:47.982Z,57.43
2023-09-10T05:38:14.225Z,57.72
2023-09-10T05:40:40.438Z,58.37
2023-09-10T05:43:06.613Z,58.74
2023-09-10T05:45:32.846Z,57.30
2023-09-10T05:47:59.065Z,57.53
2023-09-10T05:50:25.255Z,57.58
2023-09-10T05:52:51.501Z,57.63
2023-09-10T05:55:17.839Z,56.98
2023-09-10T05:57:44.008Z,57.15
2023-09-10T06:00:10.189Z,56.71
2023-09-10T06:02:36.455Z,57.26
2023-09-10T06:05:03.120Z,57.13
2023-09-10T06:07:29.525Z,57.19
2023-09-10T06:09:55.821Z,57.23
2023-09-10T06:12:21.976Z,56.25
2023-09-10T06:14:48.130Z,56.99
2023-09-10T06:17:14.313Z,56.10
2023-09-10T06:19:40.551Z,55.46
2023-09-10T06:22:06.837Z,56.34
2023-09-10T06:24:33.012Z,56.39
2023-09-10T06:26:59.187Z,56.93
2023-09-10T06:29:25.370Z,56.50
2023-09-10T06:31:51.583Z,56.34
2023-09-10T06:34:17.843Z,56.84
2023-09-10T06:36:44.017Z,56.86
2023-09-10T06:39:10.180Z,56.23
2023-09-10T06:41:36.343Z,56.59
2023-09-10T06:44:02.562Z,56.24
2023-09-10T06:46:28.775Z,56.64
2023-09-10T06:48:54.956Z,56.81
2023-09-10T06:51:21.166Z,57.12
2023-09-10T06:53:47.335Z,56.52
2023-09-10T06:56:13.562Z,55.81
2023-09-10T06:58:39.957Z,56.58
2023-09-10T07:01:06.403Z,56.17
2023-09-10T07:03:32.643Z,55.41
2023-09-10T07:05:58.852Z,54.74
2023-09-10T07:08:26.209Z,54.23
2023-09-10T07:10:52.367Z,52.83
2023-09-10T07:13:18.561Z,52.08
2023-09-10T07:15:44.760Z,51.71
2023-09-10T07:18:11.038Z,52.32
2023-09-10T07:20:37.318Z,52.16
2023-09-10T07:23:03.576Z,52.34
2023-09-10T07:25:30.246Z,51.44
2023-09-10T07:27:56.480Z,50.36
2023-09-10T07:30:22.692Z,49.96
2023-09-10T07:32:48.881Z,49.56
2023-09-10T07:35:15.083Z,50.39
2023-09-10T07:37:41.288Z,48.62
2023-09-10T07:40:07.460Z,48.93
2023-09-10T07:42:33.653Z,47.84
2023-09-10T07:44:59.824Z,48.27
2023-09-10T07:47:26.017Z,47.85
2023-09-10T07:49:52.449Z,47.00
2023-09-10T07:52:18.731Z,46.20
2023-09-10T07:54:44.902Z,46.67
2023-09-10T07:57:11.268Z,45.81
2023-09-10T07:59:37.529Z,45.26
2023-09-10T08:02:03.721Z,45.90
2023-09-10T08:04:29.911Z,45.47
2023-09-10T08:06:56.062Z,44.86
2023-09-10T08:09:22.226Z,44.44
2023-09-10T08:11:48.376Z,44.55
2023-09-10T08:14:14.564Z,44.65
2023-09-10T08:16:40.798Z,44.53
2023-09-10T08:19:07.001Z,44.49
2023-09-10T08:21:33.167Z,44.64
2023-09-10T08:23:59.315Z,44.74
2023-09-10T08:26:25.513Z,44.53
2023-09-10T08:28:51.801Z,44.67
2023-09-10T08:31:18.043Z,43.31
2023-09-10T08:33:44.239Z,43.23
2023-09-10T08:36:10.413Z,43.88
2023-09-10T08:38:36.627Z,43.60
2023-09-10T08:41:02.902Z,42.69
2023-09-10T08:43:29.082Z,43.26
2023-09-10T08:45:55.241Z,43.48
2023-09-10T08:48:21.447Z,42.29
2023-09-10T08:50:47.657Z,41.14
2023-09-10T08:53:14.564Z,42.34
2023-09-10T08:55:40.825Z,42.16
2023-09-10T08:58:06.990Z,42.37
2023-09-10T09:00:33.192Z,43.45
2023-09-10T09:02:59.603Z,43.46
2023-09-10T09:05:25.874Z,41.11
2023-09-10T09:07:52.061Z,40.13
2023-09-10T09:10:18.314Z,39.82
2023-09-10T09:12:44.514Z,39.66
2023-09-10T09:15:10.665Z,39.49
2023-09-10T09:17:36.879Z,40.08
2023-09-10T09:20:03.114Z,39.13
2023-09-10T09:22:29.348Z,39.71
2023-09-10T09:24:55.522Z,37.47
2023-09-10T09:27:21.734Z,38.80
2023-09-10T09:29:47.912Z,38.84
2023-09-10T09:32:14.090Z,38.44
2023-09-10T09:34:40.292Z,38.19
2023-09-10T09:37:06.468Z,37.51
2023-09-10T09:39:32.679Z,36.90
2023-09-10T09:41:58.837Z,37.33
2023-09-10T09:44:25.094Z,38.03
2023-09-10T09:46:51.353Z,37.84
2023-09-10T09:49:17.577Z,38.38
2023-09-10T09:51:43.753Z,39.21
2023-09-10T09:54:09.916Z,38.18
2023-09-10T09:56:36.101Z,39.50
2023-09-10T09:59:02.279Z,38.23
2023-09-10T10:01:28.482Z,38.11
2023-09-10T10:03:54.726Z,37.73
2023-09-10T10:06:20.911Z,39.19
2023-09-10T10:08:47.073Z,37.04
2023-09-10T10:11:13.267Z,38.73
2023-09-10T10:13:39.481Z,38.76
2023-09-10T10:16:05.727Z,38.74
2023-09-10T10:18:32.048Z,40.12
2023-09-10T10:20:58.261Z,39.75
2023-09-10T10:23:26.834Z,40.11
2023-09-10T10:26:05.788Z,38.98
2023-09-10T10:28:31.999Z,38.03
2023-09-10T10:30:58.181Z,38.04
2023-09-10T10:33:24.451Z,39.19
2023-09-10T10:35:50.706Z,36.58
2023-09-10T10:38:16.976Z,38.23
2023-09-10T10:40:44.147Z,38.50
2023-09-10T10:43:10.436Z,37.92
2023-09-10T10:45:36.621Z,39.44
2023-09-10T10:48:02.821Z,39.57
2023-09-10T10:50:29.241Z,37.12
2023-09-10T10:52:55.511Z,37.67
2023-09-10T10:55:21.677Z,37.35
2023-09-10T10:57:47.840Z,37.82
2023-09-10T11:00:14.041Z,37.90
2023-09-10T11:02:40.295Z,38.26
2023-09-10T11:05:06.606Z,38.48
2023-09-10T11:07:32.828Z,39.93
2023-09-10T11:09:59.143Z,39.51
2023-09-10T11:12:25.335Z,39.22
2023-09-10T11:14:51.496Z,39.54
2023-09-10T11:17:17.712Z,39.78
2023-09-10T11:19:43.943Z,38.88
2023-09-10T11:22:10.132Z,38.45
2023-09-10T11:24:36.314Z,38.24
2023-09-10T11:27:02.466Z,38.11
2023-09-10T11:29:28.693Z,38.03
2023-09-10T11:31:54.902Z,36.94
2023-09-10T11:34:21.102Z,37.57
2023-09-10T11:36:47.268Z,36.65
2023-09-10T11:39:13.441Z,37.19
2023-09-10T11:41:39.626Z,36.72
2023-09-10T11:44:05.841Z,37.93
2023-09-10T11:46:32.059Z,37.31
2023-09-10T11:48:58.239Z,35.13
2023-09-10T11:51:24.396Z,35.90
2023-09-10T11:53:50.540Z,35.64
2023-09-10T11:56:16.761Z,34.74
2023-09-10T11:58:43.113Z,36.70
2023-09-10T12:01:09.468Z,36.68
2023-09-10T12:03:35.744Z,35.88
2023-09-10T12:06:01.940Z,37.42
2023-09-10T12:08:28.193Z,37.45
2023-09-10T12:10:54.426Z,35.85
2023-09-10T12:13:20.618Z,35.93
2023-09-10T12:15:46.835Z,36.24
2023-09-10T12:18:13.064Z,35.38
2023-09-10T12:20:39.350Z,35.81
2023-09-10T12:23:05.644Z,37.17
2023-09-10T12:25:31.892Z,35.13
2023-09-10T12:27:58.044Z,36.47
2023-09-10T12:30:25.938Z,34.59
2023-09-10T12:32:52.658Z,35.42
2023-09-10T12:35:19.010Z,37.15
2023-09-10T12:37:45.223Z,35.97
2023-09-10T12:40:11.371Z,36.21
2023-09-10T12:42:37.551Z,35.94
2023-09-10T12:45:03.716Z,35.64
2023-09-10T12:47:29.981Z,35.19
2023-09-10T12:49:56.251Z,33.95
2023-09-10T12:52:22.430Z,34.28
2023-09-10T12:54:48.584Z,33.04
2023-09-10T12:57:14.744Z,33.57
2023-09-10T12:59:40.916Z,33.41
2023-09-10T13:02:07.157Z,34.02
2023-09-10T13:04:33.369Z,34.30
2023-09-10T13:06:59.526Z,32.86
2023-09-10T13:09:25.712Z,33.10
2023-09-10T13:11:51.887Z,32.47
2023-09-10T13:14:18.061Z,32.81
2023-09-10T13:16:44.319Z,32.85
2023-09-10T13:19:10.566Z,33.15
2023-09-10T13:21:36.785Z,33.60
2023-09-10T13:24:03.000Z,35.32
2023-09-10T13:26:29.257Z,35.01
2023-09-10T13:28:55.469Z,32.98
2023-09-10T13:31:21.734Z,33.83
2023-09-10T13:33:47.933Z,34.36
2023-09-10T13:36:14.131Z,34.17
2023-09-10T13:38:40.393Z,33.92
2023-09-10T13:41:06.703Z,34.75
2023-09-10T13:43:32.984Z,35.12
2023-09-10T13:45:59.313Z,35.49
2023-09-10T13:48:25.668Z,35.26
2023-09-10T13:50:51.934Z,34.92
2023-09-10T13:53:18.156Z,34.02
2023-09-10T13:55:44.342Z,34.99
2023-09-10T13:58:10.502Z,35.67
2023-09-10T14:00:36.697Z,33.68
2023-09-10T14:03:02.920Z,34.02
2023-09-10T14:05:31.460Z,33.08
2023-09-10T14:07:58.143Z,32.80
2023-09-10T14:10:24.314Z,32.47
2023-09-10T14:12:51.022Z,32.35
2023-09-10T14:15:17.368Z,31.59
2023-09-10T14:17:43.618Z,31.89
2023-09-10T14:20:09.845Z,31.74
2023-09-10T14:22:36.018Z,30.84
2023-09-10T14:25:03.279Z,29.83
2023-09-10T14:27:30.530Z,30.11
2023-09-10T14:29:56.696Z,30.09
2023-09-10T14:32:22.889Z,30.28
2023-09-10T14:34:49.148Z,30.59
2023-09-10T14:37:15.309Z,30.17
2023-09-10T14:39:41.471Z,29.53
2023-09-10T14:42:07.644Z,30.90
2023-09-10T14:44:33.844Z,30.80
2023-09-10T14:47:00.119Z,30.97
2023-09-10T14:49:26.313Z,31.23
2023-09-10T14:51:52.564Z,31.58
2023-09-10T14:54:18.709Z,31.49
2023-09-10T14:56:44.879Z,30.82
2023-09-10T14:59:11.097Z,30.93
2023-09-10T15:01:37.456Z,31.72
2023-09-10T15:04:03.762Z,32.45
2023-09-10T15:06:29.982Z,35.40
2023-09-10T15:08:56.146Z,34.02
2023-09-10T15:11:22.362Z,34.63
2023-09-10T15:13:48.543Z,33.89
2023-09-10T15:16:14.752Z,35.87
2023-09-10T15:18:40.946Z,35.61
2023-09-10T15:21:07.125Z,35.31
2023-09-10T15:23:33.319Z,35.97
2023-09-10T15:25:59.561Z,36.53
2023-09-10T15:28:25.752Z,36.15
2023-09-10T15:30:51.913Z,36.46
2023-09-10T15:33:18.156Z,37.17
2023-09-10T15:35:44.372Z,38.51
2023-09-10T15:38:10.612Z,39.08
2023-09-10T15:40:36.932Z,39.01
2023-09-10T15:43:03.098Z,37.09
2023-09-10T15:45:29.293Z,37.77
2023-09-10T15:47:55.577Z,38.41
2023-09-10T15:50:21.846Z,39.05
2023-09-10T15:52:48.034Z,38.97
2023-09-10T15:55:14.195Z,38.87
2023-09-10T15:57:40.371Z,39.17
2023-09-10T16:00:06.545Z,37.88
2023-09-10T16:02:32.857Z,38.13
2023-09-10T16:04:59.251Z,39.48
2023-09-10T16:07:25.555Z,40.16
2023-09-10T16:09:51.720Z,39.05
2023-09-10T16:12:17.917Z,38.27
2023-09-10T16:14:44.073Z,38.82
2023-09-10T16:17:10.315Z,38.69
2023-09-10T16:19:36.520Z,38.59
2023-09-10T16:22:02.693Z,39.25
2023-09-10T16:24:28.879Z,40.72
2023-09-10T16:26:55.044Z,40.08
2023-09-10T16:29:21.249Z,40.59
2023-09-10T16:31:47.449Z,40.48
2023-09-10T16:34:13.614Z,40.74
2023-09-10T16:36:39.785Z,40.49
2023-09-10T16:39:05.987Z,40.71
2023-09-10T16:41:32.203Z,39.71
2023-09-10T16:43:58.370Z,41.26
2023-09-10T16:46:24.577Z,41.43
2023-09-10T16:48:50.781Z,42.69
2023-09-10T16:51:17.001Z,42.57
2023-09-10T16:53:43.605Z,41.84
2023-09-10T16:56:09.880Z,42.81
2023-09-10T16:58:36.073Z,41.08
2023-09-10T17:01:02.296Z,41.31
2023-09-10T17:03:28.644Z,43.26
2023-09-10T17:05:54.943Z,42.00
2023-09-10T17:08:21.150Z,42.27
2023-09-10T17:10:47.344Z,43.11
2023-09-10T17:13:13.520Z,42.57
2023-09-10T17:15:39.689Z,44.21
2023-09-10T17:18:05.896Z,42.84
2023-09-10T17:20:32.106Z,43.47
2023-09-10T17:22:58.342Z,43.27
2023-09-10T17:25:24.504Z,43.53
2023-09-10T17:27:50.686Z,44.45
2023-09-10T17:30:16.969Z,45.33
2023-09-10T17:32:43.197Z,44.81
2023-09-10T17:35:09.622Z,44.34
2023-09-10T17:37:35.825Z,45.24
2023-09-10T17:40:02.054Z,45.16
2023-09-10T17:42:28.221Z,45.96
2023-09-10T17:44:54.383Z,45.55
2023-09-10T17:47:20.672Z,45.04
2023-09-10T17:49:59.580Z,45.08
2023-09-10T17:52:32.032Z,46.37
2023-09-10T17:54:58.225Z,46.69
2023-09-10T17:57:24.393Z,47.38
2023-09-10T17:59:50.572Z,46.97
2023-09-10T18:02:16.825Z,46.75
2023-09-10T18:04:43.036Z,47.32
2023-09-10T18:07:09.198Z,47.33
2023-09-10T18:09:35.410Z,47.85
2023-09-10T18:12:01.619Z,48.06
2023-09-10T18:14:27.799Z,48.50
2023-09-10T18:16:53.992Z,48.84
2023-09-10T18:19:20.180Z,48.19
2023-09-10T18:21:46.374Z,48.17
2023-09-10T18:24:12.544Z,48.53
2023-09-10T18:26:38.756Z,48.66
2023-09-10T18:29:04.993Z,49.12
2023-09-10T18:31:31.213Z,48.83
2023-09-10T18:33:57.420Z,48.54
2023-09-10T18:36:23.602Z,48.81
2023-09-10T18:38:49.772Z,48.81
2023-09-10T18:41:15.970Z,49.31
2023-09-10T18:43:42.395Z,50.24
2023-09-10T18:46:08.952Z,49.63
2023-09-10T18:48:35.131Z,49.17
2023-09-10T18:51:01.280Z,48.51
2023-09-10T18:53:27.573Z,49.87
2023-09-10T18:55:53.786Z,50.14
2023-09-10T18:58:19.958Z,49.76
2023-09-10T19:00:46.125Z,49.62
2023-09-10T19:03:12.454Z,50.03
2023-09-10T19:05:38.696Z,49.89
2023-09-10T19:08:07.050Z,49.96
2023-09-10T19:10:33.361Z,50.32
2023-09-10T19:12:59.517Z,50.43
2023-09-10T19:15:25.686Z,50.40
2023-09-10T19:17:51.926Z,50.81
2023-09-10T19:20:18.180Z,51.33
2023-09-10T19:22:46.676Z,50.51
2023-09-10T19:25:12.970Z,50.55
2023-09-10T19:27:39.129Z,51.60
2023-09-10T19:30:05.303Z,51.39
2023-09-10T19:32:31.604Z,51.22
2023-09-10T19:34:57.893Z,51.25
2023-09-10T19:37:24.067Z,51.33
2023-09-10T19:39:50.232Z,51.10
2023-09-10T19:42:16.386Z,51.58
2023-09-10T19:44:42.618Z,51.20
2023-09-10T19:47:08.852Z,51.37
2023-09-10T19:49:35.125Z,50.63
2023-09-10T19:52:01.338Z,51.59
2023-09-10T19:54:27.530Z,52.00
2023-09-10T19:56:53.754Z,51.45
2023-09-10T19:59:20.025Z,51.61
2023-09-10T20:01:46.211Z,51.08
2023-09-10T20:04:12.359Z,51.55
2023-09-10T20:06:38.531Z,51.58
2023-09-10T20:09:04.708Z,51.95
2023-09-10T20:11:30.881Z,52.05
2023-09-10T20:13:57.077Z,52.40
2023-09-10T20:16:23.304Z,52.68
2023-09-10T20:18:49.491Z,52.95
2023-09-10T20:21:15.664Z,52.94
2023-09-10T20:23:42.324Z,53.32
2023-09-10T20:26:08.813Z,53.43
2023-09-10T20:28:34.982Z,53.66
2023-09-10T20:31:01.213Z,53.95
2023-09-10T20:33:27.454Z,53.99
2023-09-10T20:35:53.759Z,53.96
2023-09-10T20:38:20.104Z,54.46
2023-09-10T20:40:46.276Z,54.32
2023-09-10T20:43:12.450Z,54.24
2023-09-10T20:45:38.613Z,54.20
2023-09-10T20:48:04.824Z,54.30
2023-09-10T20:50:31.072Z,54.12
2023-09-10T20:52:57.261Z,54.00
2023-09-10T20:55:23.438Z,53.62
2023-09-10T20:57:49.585Z,52.70
2023-09-10T21:00:15.754Z,52.98
2023-09-10T21:02:42.053Z,53.46
2023-09-10T21:05:08.913Z,54.13
2023-09-10T21:07:35.573Z,54.66
2023-09-10T21:10:01.821Z,54.30
2023-09-10T21:12:27.987Z,54.80
2023-09-10T21:14:54.177Z,54.53
2023-09-10T21:17:20.379Z,54.39
2023-09-10T21:19:46.533Z,54.43
2023-09-10T21:22:12.718Z,54.90
2023-09-10T21:24:38.915Z,54.57
2023-09-10T21:27:05.076Z,55.15
2023-09-10T21:29:31.343Z,55.51
2023-09-10T21:31:57.602Z,54.67
2023-09-10T21:34:23.766Z,55.75
2023-09-10T21:36:49.917Z,55.97
2023-09-10T21:39:16.094Z,55.96
2023-09-10T21:41:42.282Z,56.09
2023-09-10T21:44:08.520Z,55.29
2023-09-10T21:46:34.696Z,55.33
2023-09-10T21:49:00.866Z,55.56
2023-09-10T21:51:27.034Z,56.02
2023-09-10T21:53:53.189Z,55.83
2023-09-10T21:56:19.386Z,55.96
2023-09-10T21:58:45.559Z,55.81
2023-09-10T22:01:11.746Z,56.18
2023-09-10T22:03:38.089Z,56.48
2023-09-10T22:06:04.326Z,55.43
2023-09-10T22:08:30.527Z,55.65
2023-09-10T22:10:56.696Z,56.39
2023-09-10T22:13:22.854Z,56.29
2023-09-10T22:15:49.078Z,56.07
2023-09-10T22:18:15.426Z,55.34
2023-09-10T22:20:41.727Z,55.31
2023-09-10T22:23:07.925Z,56.00
2023-09-10T22:25:34.088Z,56.08
2023-09-10T22:28:00.259Z,56.27
2023-09-10T22:30:26.428Z,57.09
2023-09-10T22:32:52.671Z,57.27
2023-09-10T22:35:18.888Z,57.17
2023-09-10T22:37:45.066Z,57.61
2023-09-10T22:40:11.232Z,57.28
2023-09-10T22:42:37.401Z,56.29
2023-09-10T22:45:03.572Z,57.15
2023-09-10T22:47:29.829Z,57.54
2023-09-10T22:49:56.046Z,57.76
2023-09-10T22:52:22.205Z,58.11
2023-09-10T22:54:48.361Z,57.71
2023-09-10T22:57:14.522Z,57.42
2023-09-10T22:59:40.726Z,56.88
2023-09-10T23:02:06.895Z,56.75
2023-09-10T23:04:33.090Z,57.31
2023-09-10T23:06:59.284Z,57.41
2023-09-10T23:09:25.432Z,57.14
2023-09-10T23:11:51.634Z,56.72
2023-09-10T23:14:17.890Z,56.31
2023-09-10T23:16:44.069Z,56.16
2023-09-10T23:19:10.243Z,56.69
2023-09-10T23:21:36.396Z,57.16
2023-09-10T23:24:02.586Z,57.63
2023-09-10T23:26:28.818Z,57.86
2023-09-10T23:28:55.018Z,56.95
2023-09-10T23:31:21.230Z,56.34
2023-09-10T23:33:47.434Z,56.09
2023-09-10T23:36:13.670Z,55.21
2023-09-10T23:38:40.119Z,56.02
2023-09-10T23:41:06.562Z,57.40
2023-09-10T23:43:32.728Z,57.97
2023-09-10T23:45:58.878Z,58.20
2023-09-10T23:48:25.103Z,58.17
2023-09-10T23:50:51.339Z,58.43
2023-09-10T23:53:17.683Z,59.04
2023-09-10T23:55:43.912Z,58.79
2023-09-10T23:58:10.076Z,58.67
